Time;durP1;ratioP1;P1;durP2;ratioP2;P2;SDS_P1;SDS_P2;PMS_P1;PMS_P2;Temp;Humidity;BMP_temperature;BMP_pressure;BME280_temperature;BME280_humidity;BME280_pressure;Samples;Min_cycle;Max_cycle;Signal;HPM_P1;HPM_P2
2020/12/11 00:02:08;;;;;;;;;11.33;9.67;;;;;10.83;72.38;100313.81;5029899;28;11482;-70
2020/12/11 00:04:35;;;;;;;;;10.50;7.00;;;;;10.99;70.70;100310.44;5029464;28;11493;-71
2020/12/11 00:07:01;;;;;;;;;7.25;6.00;;;;;11.23;69.29;100317.59;5029917;28;11615;-70
2020/12/11 00:09:28;;;;;;;;;7.00;6.00;;;;;11.36;69.17;100319.41;5029943;28;11526;-69
2020/12/11 00:11:55;;;;;;;;;8.75;7.00;;;;;11.26;69.09;100315.00;5029634;28;11581;-69
2020/12/11 00:14:22;;;;;;;;;10.50;7.00;;;;;11.33;68.66;100311.56;5029762;28;11506;-70
2020/12/11 00:16:49;;;;;;;;;5.00;5.00;;;;;11.05;68.44;100283.44;5029359;28;11573;-69
2020/12/11 00:19:15;;;;;;;;;6.75;6.00;;;;;11.53;67.73;100330.88;5029621;28;11486;-69
2020/12/11 00:21:42;;;;;;;;;5.50;5.50;;;;;11.47;69.00;100320.34;5025433;28;11595;-68
2020/12/11 00:24:08;;;;;;;;;8.00;6.00;;;;;11.53;66.85;100320.41;5029743;28;11528;-70
2020/12/11 00:26:35;;;;;;;;;4.75;4.75;;;;;11.69;67.37;100324.88;5029274;28;11584;-69
2020/12/11 00:29:01;;;;;;;;;6.00;4.25;;;;;11.72;66.75;100317.03;5029676;28;12316;-69
2020/12/11 00:31:27;;;;;;;;;7.50;5.50;;;;;11.79;67.34;100330.19;5029747;28;11515;-69
2020/12/11 00:33:55;;;;;;;;;4.00;4.00;;;;;11.86;66.76;100336.34;5029288;28;11611;-70
2020/12/11 00:36:22;;;;;;;;;6.00;6.00;;;;;11.86;67.54;100336.34;5029619;28;12300;-70
2020/12/11 00:38:49;;;;;;;;;12.25;9.50;;;;;11.77;67.42;100337.16;5029104;28;12143;-69
2020/12/11 00:41:15;;;;;;;;;12.33;12.00;;;;;11.76;68.61;100331.94;5029708;28;11584;-70
2020/12/11 00:43:41;;;;;;;;;13.50;11.75;;;;;11.88;67.87;100329.34;5025247;28;11644;-69
2020/12/11 00:46:08;;;;;;;;;15.00;14.00;;;;;11.90;68.69;100332.84;5029250;28;11540;-69
2020/12/11 00:48:34;;;;;;;;;11.00;9.00;;;;;11.60;68.39;100327.47;5029054;28;12311;-70
2020/12/11 00:51:01;;;;;;;;;8.75;8.75;;;;;11.24;70.02;100337.69;5029498;28;11504;-70
2020/12/11 00:53:27;;;;;;;;;8.67;8.67;;;;;10.93;71.78;100346.19;5029632;28;11511;-69
2020/12/11 00:55:54;;;;;;;;;8.33;7.33;;;;;11.36;70.31;100343.00;5029223;28;11540;-70
2020/12/11 00:58:20;;;;;;;;;5.50;5.50;;;;;11.37;68.55;100334.28;5029421;28;11577;-70
2020/12/11 01:00:46;;;;;;;;;6.00;5.00;;;;;11.38;67.75;100330.81;5028971;28;11636;-69
2020/12/11 01:03:12;;;;;;;;;4.75;4.25;;;;;11.33;67.60;100322.03;5032267;28;11603;-69
2020/12/11 01:05:39;;;;;;;;;4.50;4.25;;;;;11.43;68.12;100321.25;5033130;28;11569;-70
2020/12/11 01:08:07;;;;;;;;;5.25;5.25;;;;;11.54;68.80;100328.28;5033137;28;11604;-69
2020/12/11 01:10:33;;;;;;;;;8.00;8.00;;;;;11.60;69.16;100327.47;5032674;28;12321;-69
2020/12/11 01:13:00;;;;;;;;;7.00;7.00;;;;;11.54;69.12;100332.66;5032975;28;11517;-70
2020/12/11 01:15:27;;;;;;;;;5.67;5.67;;;;;11.56;69.73;100342.28;5032790;28;11564;-70
2020/12/11 01:17:53;;;;;;;;;8.00;8.00;;;;;11.54;70.55;100343.16;5032638;28;12343;-70
2020/12/11 01:20:19;;;;;;;;;13.00;13.00;;;;;11.52;70.86;100339.63;5032854;28;11580;-70
2020/12/11 01:22:45;;;;;;;;;14.33;13.00;;;;;11.60;71.08;100348.47;5032362;28;11562;-70
2020/12/11 01:25:13;;;;;;;;;19.67;15.67;;;;;11.64;70.92;100351.09;5032819;28;12394;-71
2020/12/11 01:27:39;;;;;;;;;18.67;16.00;;;;;11.65;70.74;100336.25;5032340;28;8841;-70
2020/12/11 01:30:05;;;;;;;;;19.00;17.00;;;;;11.48;70.49;100332.63;5032560;28;8830;-70
2020/12/11 01:32:32;;;;;;;;;16.00;14.33;;;;;11.62;71.27;100349.34;5032463;28;8849;-70
2020/12/11 01:34:58;;;;;;;;;15.33;15.33;;;;;11.59;70.85;100341.47;5032367;28;11634;-70
2020/12/11 01:37:24;;;;;;;;;17.00;16.33;;;;;11.64;70.84;100358.06;5032373;28;9589;-71
2020/12/11 01:39:50;;;;;;;;;16.00;16.00;;;;;11.50;71.65;100346.63;5032293;28;8869;-70
2020/12/11 01:42:17;;;;;;;;;17.67;14.33;;;;;11.50;71.45;100341.38;5032380;28;11535;-70
2020/12/11 01:44:51;;;;;;;;;16.67;12.00;;;;;11.57;71.03;100332.66;5032064;28;11541;-70
2020/12/11 01:47:18;;;;;;;;;16.00;15.33;;;;;11.49;70.84;100318.66;5029224;28;11549;-70
2020/12/11 01:49:45;;;;;;;;;16.33;15.67;;;;;11.37;71.31;100318.56;5032325;28;8931;-70
2020/12/11 01:52:12;;;;;;;;;16.33;15.33;;;;;11.30;70.82;100306.28;5028216;28;11525;-70
2020/12/11 01:54:38;;;;;;;;;19.33;18.67;;;;;11.20;72.02;100309.72;5032178;28;11636;-69
2020/12/11 01:57:06;;;;;;;;;40.00;37.00;;;;;11.20;71.37;100315.84;5031926;28;8849;-69
2020/12/11 01:59:42;;;;;;;;;35.67;31.67;;;;;11.05;71.40;100314.88;5031950;28;8837;-69
2020/12/11 02:02:10;;;;;;;;;23.33;18.00;;;;;10.81;71.84;100309.41;5032229;28;8905;-69
2020/12/11 02:04:37;;;;;;;;;12.67;11.00;;;;;10.63;73.36;100319.75;5031796;28;8869;-70
2020/12/11 02:07:05;;;;;;;;;16.67;13.67;;;;;10.91;72.49;100316.50;5032079;28;11631;-70
2020/12/11 02:09:33;;;;;;;;;13.33;12.00;;;;;10.87;72.77;100319.94;5031698;28;8838;-69
2020/12/11 02:11:59;;;;;;;;;15.33;13.67;;;;;10.85;72.55;100319.06;5031782;28;8845;-70
2020/12/11 02:14:25;;;;;;;;;17.33;13.00;;;;;10.84;72.98;100317.31;5031888;28;8927;-71
2020/12/11 02:16:57;;;;;;;;;15.67;13.00;;;;;10.85;73.13;100319.06;5031286;28;8927;-70
2020/12/11 02:19:24;;;;;;;;;18.33;13.67;;;;;10.96;71.98;100320.03;5031999;28;8842;-69
2020/12/11 02:21:51;;;;;;;;;12.00;12.00;;;;;10.95;71.54;100303.41;5031842;28;12256;-68
2020/12/11 02:24:18;;;;;;;;;11.00;11.00;;;;;11.04;71.00;100308.75;5031637;28;11563;-69
2020/12/11 02:26:44;;;;;;;;;8.00;6.33;;;;;10.89;71.22;100302.53;5031586;28;11634;-71
2020/12/11 02:29:10;;;;;;;;;15.00;13.00;;;;;10.68;71.97;100312.81;5027834;28;8830;-70
2020/12/11 02:31:37;;;;;;;;;15.00;12.33;;;;;10.43;72.91;100310.81;5031242;28;11574;-70
2020/12/11 02:34:03;;;;;;;;;15.33;13.33;;;;;10.07;74.17;100286.88;5031446;28;9554;-69
2020/12/11 02:36:29;;;;;;;;;13.67;11.00;;;;;10.32;74.00;100304.59;5031413;28;8834;-70
2020/12/11 02:38:58;;;;;;;;;14.33;14.33;;;;;10.46;73.73;100303.00;5031293;28;8837;-70
2020/12/11 02:41:24;;;;;;;;;13.33;13.33;;;;;10.51;73.01;100303.94;5031420;28;8845;-70
2020/12/11 02:43:50;;;;;;;;;10.00;10.00;;;;;10.49;73.60;100300.41;5031168;28;8970;-70
2020/12/11 02:46:17;;;;;;;;;13.00;12.67;;;;;10.08;75.05;100312.22;5031312;28;8841;-70
2020/12/11 02:48:43;;;;;;;;;10.00;10.00;;;;;10.13;75.02;100310.50;5031081;28;8895;-69
2020/12/11 02:51:11;;;;;;;;;15.00;13.00;;;;;10.06;75.03;100303.44;5027418;28;9566;-68
2020/12/11 02:53:37;;;;;;;;;11.33;9.33;;;;;10.15;74.72;100293.09;5030874;28;8919;-69
2020/12/11 02:56:04;;;;;;;;;11.00;11.00;;;;;10.32;74.34;100291.53;5031484;28;8834;-71
2020/12/11 02:58:30;;;;;;;;;11.67;11.67;;;;;10.37;73.65;100280.25;5030657;28;9582;-70
2020/12/11 03:00:56;;;;;;;;;14.33;11.67;;;;;10.08;74.36;100288.66;5031181;28;8871;-70
2020/12/11 03:03:23;;;;;;;;;12.00;12.00;;;;;9.93;75.13;100275.38;5030955;28;8849;-69
2020/12/11 03:05:49;;;;;;;;;13.67;11.33;;;;;9.74;75.80;100278.63;5030510;28;8845;-70
2020/12/11 03:08:15;;;;;;;;;13.33;11.33;;;;;9.73;75.94;100276.88;5030796;28;8833;-69
2020/12/11 03:10:41;;;;;;;;;14.00;12.67;;;;;9.70;75.74;100276.84;5030710;28;8845;-70
2020/12/11 03:13:08;;;;;;;;;15.67;10.33;;;;;9.54;76.64;100282.75;5030803;28;8837;-70
2020/12/11 03:15:34;;;;;;;;;9.67;9.33;;;;;9.60;76.02;100295.91;5030022;28;8845;-72
2020/12/11 03:18:00;;;;;;;;;10.00;10.00;;;;;9.64;75.69;100292.44;5031008;28;8865;-70
2020/12/11 03:20:27;;;;;;;;;13.33;11.00;;;;;9.73;75.83;100310.88;5030385;28;8853;-70
2020/12/11 03:22:56;;;;;;;;;14.33;11.00;;;;;9.89;74.64;100297.13;5030154;28;8853;-70
2020/12/11 03:25:23;;;;;;;;;13.00;11.00;;;;;10.00;73.92;100298.13;5030098;28;8878;-71
2020/12/11 03:27:50;;;;;;;;;1.00;1.00;;;;;9.96;73.23;100296.31;5030348;28;8849;-70
2020/12/11 03:30:17;;;;;;;;;12.00;9.67;;;;;9.72;74.00;100302.13;5030445;28;8841;-70
2020/12/11 03:32:43;;;;;;;;;11.00;11.00;;;;;9.84;73.93;100304.03;5030277;28;8826;-69
2020/12/11 03:35:31;;;;;;;;;10.67;10.67;;;;;9.82;73.76;100287.47;5026366;28;8837;-69
2020/12/11 03:37:57;;;;;;;;;14.00;14.00;;;;;9.89;73.57;100290.16;5029085;28;8915;-69
2020/12/11 03:40:23;;;;;;;;;11.00;9.00;;;;;9.94;74.07;100292.81;5030327;28;9039;-70
2020/12/11 03:42:50;;;;;;;;;13.33;13.33;;;;;9.99;73.62;100296.38;5030078;28;8937;-71
2020/12/11 03:45:17;;;;;;;;;13.33;10.33;;;;;9.98;74.23;100310.31;5030294;28;9667;-70
2020/12/11 03:47:43;;;;;;;;;13.00;11.00;;;;;9.93;74.13;100302.41;5029865;28;8826;-70
2020/12/11 03:50:09;;;;;;;;;12.67;11.67;;;;;9.93;73.51;100306.78;5030274;28;8865;-70
2020/12/11 03:52:36;;;;;;;;;6.33;6.33;;;;;9.93;73.62;100312.00;5030263;28;8876;-70
2020/12/11 03:55:02;;;;;;;;;15.33;12.67;;;;;9.89;73.55;100315.44;5030075;28;8834;-70
2020/12/11 03:57:28;;;;;;;;;12.33;11.67;;;;;9.86;73.85;100315.38;5029977;28;9612;-70
2020/12/11 03:59:54;;;;;;;;;11.00;11.00;;;;;10.01;73.07;100320.78;5030096;28;8837;-69
2020/12/11 04:02:21;;;;;;;;;14.67;11.67;;;;;10.01;73.49;100305.09;5030241;28;9699;-69
2020/12/11 04:04:47;;;;;;;;;12.00;12.00;;;;;9.86;73.57;100304.91;5029589;28;8911;-70
2020/12/11 04:07:14;;;;;;;;;12.67;12.67;;;;;9.84;73.55;100283.13;5030253;28;8831;-70
2020/12/11 04:09:40;;;;;;;;;14.67;12.33;;;;;9.93;73.41;100296.31;5029744;28;8850;-69
2020/12/11 04:12:07;;;;;;;;;12.00;11.00;;;;;9.86;73.42;100273.53;5029965;28;8955;-69
2020/12/11 04:14:33;;;;;;;;;13.33;11.00;;;;;9.85;73.43;100303.16;5029578;28;8846;-69
2020/12/11 04:16:59;;;;;;;;;14.33;13.00;;;;;9.87;73.42;100301.47;5029546;28;8841;-70
2020/12/11 04:19:26;;;;;;;;;15.00;11.00;;;;;9.84;73.31;100311.88;5029845;28;9096;-69
2020/12/11 04:21:53;;;;;;;;;16.67;12.67;;;;;9.71;73.19;100315.22;5029397;28;8939;-69
2020/12/11 04:24:22;;;;;;;;;14.00;12.33;;;;;9.70;72.65;100327.41;5029787;28;8826;-70
2020/12/11 04:26:48;;;;;;;;;13.33;12.33;;;;;9.53;72.61;100330.63;5029377;28;8915;-69
2020/12/11 04:29:14;;;;;;;;;10.00;9.67;;;;;9.29;74.06;100331.16;5029630;28;8837;-69
2020/12/11 04:31:41;;;;;;;;;12.33;12.33;;;;;9.18;74.39;100331.88;5029414;28;9552;-70
2020/12/11 04:34:08;;;;;;;;;10.33;10.33;;;;;9.19;74.10;100333.63;5029889;28;8852;-70
2020/12/11 04:36:35;;;;;;;;;15.33;13.33;;;;;9.30;73.69;100326.84;5029249;28;8884;-70
2020/12/11 04:39:01;;;;;;;;;14.33;13.00;;;;;9.35;73.53;100336.50;5033423;28;9581;-69
2020/12/11 04:41:30;;;;;;;;;14.67;13.67;;;;;9.33;73.71;100326.91;5033657;28;8931;-69
2020/12/11 04:43:57;;;;;;;;;13.33;13.33;;;;;9.27;73.86;100326.81;5033609;28;8841;-69
2020/12/11 04:46:27;;;;;;;;;13.67;12.33;;;;;9.26;73.83;100325.03;5033354;28;8888;-69
2020/12/11 04:48:55;;;;;;;;;11.00;11.00;;;;;9.15;74.88;100337.06;5033511;28;8826;-70
2020/12/11 04:51:23;;;;;;;;;10.00;10.00;;;;;9.00;75.05;100300.25;5033449;28;8846;-70
2020/12/11 04:53:53;;;;;;;;;13.33;10.00;;;;;9.24;74.45;100331.97;5033184;28;9274;-70
2020/12/11 04:56:21;;;;;;;;;10.00;9.33;;;;;9.11;74.68;100330.91;5033606;28;8837;-69
2020/12/11 04:58:51;;;;;;;;;13.00;11.00;;;;;9.01;74.89;100313.34;5033189;28;8903;-70
2020/12/11 05:01:27;;;;;;;;;10.67;10.67;;;;;8.98;74.48;100315.03;5033494;28;8822;-70
2020/12/11 05:03:55;;;;;;;;;15.00;9.33;;;;;9.14;74.20;100325.75;5033160;28;8935;-70
2020/12/11 05:06:21;;;;;;;;;12.33;10.00;;;;;9.13;73.74;100325.72;5032978;28;8865;-71
2020/12/11 05:08:47;;;;;;;;;4.33;3.00;;;;;8.92;74.50;100328.88;5033180;28;8848;-71
2020/12/11 05:11:27;;;;;;;;;10.33;10.33;;;;;8.71;75.61;100323.31;5032830;28;8905;-71
2020/12/11 05:13:53;;;;;;;;;9.33;7.00;;;;;8.58;75.95;100307.41;5032846;28;8846;-69
2020/12/11 05:16:21;;;;;;;;;11.67;7.67;;;;;8.77;75.35;100322.50;5032826;28;8846;-70
2020/12/11 05:18:56;;;;;;;;;10.00;9.00;;;;;8.66;75.31;100318.84;5032693;28;9651;-70
2020/12/11 05:21:26;;;;;;;;;14.67;9.67;;;;;8.55;76.13;100320.41;5032901;28;8838;-70
2020/12/11 05:23:56;;;;;;;;;9.00;8.33;;;;;8.51;75.01;100329.03;5032684;28;8862;-70
2020/12/11 05:26:23;;;;;;;;;9.00;7.67;;;;;8.37;75.32;100325.31;5032789;28;8846;-71
2020/12/11 05:28:50;;;;;;;;;7.33;7.33;;;;;8.32;76.09;100324.34;5032502;28;9618;-70
2020/12/11 05:31:16;;;;;;;;;9.33;6.00;;;;;8.21;75.99;100338.91;5032993;28;8939;-70
2020/12/11 05:34:02;;;;;;;;;6.00;5.33;;;;;8.02;76.38;100341.97;5032497;28;9699;-71
2020/12/11 05:36:41;;;;;;;;;9.00;7.33;;;;;8.06;76.07;100343.78;5032585;28;8938;-70
2020/12/11 05:39:07;;;;;;;;;10.00;6.67;;;;;7.99;76.81;100341.94;5028585;28;8923;-70
2020/12/11 05:41:34;;;;;;;;;12.67;8.67;;;;;8.03;76.21;100338.50;5032300;28;8833;-70
2020/12/11 05:44:01;;;;;;;;;8.33;6.33;;;;;8.19;76.17;100340.56;5032318;28;8861;-69
2020/12/11 05:46:31;;;;;;;;;10.00;9.00;;;;;8.02;76.08;100341.97;5032563;28;8834;-70
2020/12/11 05:48:59;;;;;;;;;8.67;8.33;;;;;7.92;75.85;100324.38;5031879;28;8846;-71
2020/12/11 05:51:34;;;;;;;;;9.33;8.67;;;;;7.93;76.76;100347.03;5032802;28;8856;-70
2020/12/11 05:54:05;;;;;;;;;8.67;8.33;;;;;7.79;77.05;100348.47;5032188;28;8999;-70
2020/12/11 05:56:32;;;;;;;;;7.33;7.33;;;;;7.87;76.63;100354.72;5031870;28;9005;-70
2020/12/11 05:58:58;;;;;;;;;6.00;6.00;;;;;7.61;77.13;100337.66;5032266;28;8842;-71
2020/12/11 06:01:25;;;;;;;;;5.33;5.33;;;;;7.93;76.82;100352.25;5032355;28;8837;-69
2020/12/11 06:03:52;;;;;;;;;4.33;4.33;;;;;8.17;75.06;100360.53;5032061;28;8857;-68
2020/12/11 06:06:18;;;;;;;;;10.00;10.00;;;;;8.15;75.42;100346.59;5032311;28;8829;-69
2020/12/11 06:08:45;;;;;;;;;2.00;0.00;;;;;8.23;75.08;100352.84;5031600;28;8913;-68
2020/12/11 06:11:17;;;;;;;;;5.00;5.00;;;;;8.14;75.42;100352.66;5032374;28;8891;-68
2020/12/11 06:13:50;;;;;;;;;6.67;6.67;;;;;8.41;74.68;100358.44;5031687;28;8842;-68
2020/12/11 06:16:20;;;;;;;;;13.33;10.00;;;;;8.50;74.21;100353.38;5032082;28;8844;-68
2020/12/11 06:18:53;;;;;;;;;9.00;9.00;;;;;8.41;73.42;100353.22;5031912;28;8869;-67
2020/12/11 06:21:21;;;;;;;;;12.00;6.67;;;;;8.16;74.55;100350.94;5032056;28;8909;-67
2020/12/11 06:23:47;;;;;;;;;6.00;5.00;;;;;8.04;75.38;100350.72;5031492;28;8842;-67
2020/12/11 06:26:15;;;;;;;;;6.00;6.00;;;;;8.23;74.15;100358.97;5031954;28;9597;-67
2020/12/11 06:28:43;;;;;;;;;12.00;10.00;;;;;8.18;74.23;100351.84;5031606;28;8867;-69
2020/12/11 06:31:11;;;;;;;;;8.67;6.00;;;;;8.04;74.41;100350.72;5031988;28;8853;-69
2020/12/11 06:33:40;;;;;;;;;9.00;8.00;;;;;8.06;74.72;100349.91;5027840;28;8872;-70
2020/12/11 06:36:07;;;;;;;;;6.00;6.00;;;;;8.14;73.98;100357.88;5027736;28;8907;-70
2020/12/11 06:38:46;;;;;;;;;13.00;12.33;;;;;7.97;74.92;100354.03;5028262;28;8849;-71
2020/12/11 06:41:13;;;;;;;;;12.33;12.00;;;;;7.91;75.30;100353.91;5028014;28;8826;-71
2020/12/11 06:43:42;;;;;;;;;13.00;10.00;;;;;7.81;75.66;100357.16;5029868;28;8947;-69
2020/12/11 06:46:13;;;;;;;;;12.00;12.00;;;;;7.74;75.68;100337.06;5026985;28;8841;-71
2020/12/11 06:49:07;;;;;;;;;14.33;10.67;;;;;7.84;75.45;100346.81;5026050;28;8817;-68
2020/12/11 06:51:35;;;;;;;;;13.00;10.67;;;;;7.72;75.81;100347.44;5030674;28;8826;-67
2020/12/11 06:54:01;;;;;;;;;14.67;10.00;;;;;7.72;75.76;100341.38;5031225;28;9682;-69
2020/12/11 06:56:41;;;;;;;;;9.33;9.00;;;;;7.69;75.79;100347.41;5030498;28;8850;-68
2020/12/11 06:59:22;;;;;;;;;9.00;9.00;;;;;7.77;75.15;100352.78;5026470;28;8951;-67
2020/12/11 07:01:48;;;;;;;;;14.67;13.00;;;;;8.06;74.24;100351.63;4976832;28;10866;-68
2020/12/11 07:04:15;;;;;;;;;16.00;12.67;;;;;8.52;72.97;100346.47;5003369;28;12152;-68
2020/12/11 07:06:47;;;;;;;;;9.00;9.00;;;;;10.71;65.44;100329.44;5023253;28;8880;-70
2020/12/11 07:09:14;;;;;;;;;9.00;9.00;;;;;12.39;59.46;100334.75;5020109;28;8836;-69
2020/12/11 07:11:40;;;;;;;;;8.33;6.00;;;;;14.29;53.63;100325.78;5023074;28;8905;-71
2020/12/11 07:14:06;;;;;;;;;9.33;8.33;;;;;14.91;51.13;100323.56;5020701;28;8906;-69
2020/12/11 07:16:38;;;;;;;;;9.67;9.33;;;;;12.95;56.33;100328.69;5019753;28;8840;-70
2020/12/11 07:19:05;;;;;;;;;13.67;11.00;;;;;11.77;60.19;100346.78;5013232;28;8844;-73
2020/12/11 07:21:32;;;;;;;;;12.33;11.00;;;;;12.49;58.47;100336.53;5018843;28;8865;-72
2020/12/11 07:24:00;;;;;;;;;13.00;11.00;;;;;14.57;52.61;100319.44;5017763;28;8967;-70
2020/12/11 07:26:36;;;;;;;;;14.00;10.33;;;;;15.49;49.53;100314.28;5016606;28;8976;-70
2020/12/11 07:29:04;;;;;;;;;17.67;13.67;;;;;16.01;47.98;100315.44;5019799;28;8853;-69
2020/12/11 07:31:33;;;;;;;;;13.33;13.00;;;;;16.78;46.14;100312.56;5018069;28;8878;-70
2020/12/11 07:33:59;;;;;;;;;12.00;12.00;;;;;15.67;48.59;100324.63;5021094;28;8922;-72
2020/12/11 07:36:26;;;;;;;;;12.00;12.00;;;;;13.85;52.62;100323.28;5019301;28;8894;-72
2020/12/11 07:38:53;;;;;;;;;10.67;10.00;;;;;12.79;55.93;100347.09;5015962;28;9601;-73
2020/12/11 07:41:23;;;;;;;;;12.00;12.00;;;;;11.84;58.51;100327.59;5020856;28;9589;-73
2020/12/11 07:43:49;;;;;;;;;9.00;7.33;;;;;10.64;61.80;100342.44;5019060;28;8965;-72
2020/12/11 07:46:22;;;;;;;;;9.00;9.00;;;;;10.00;64.99;100360.91;5020210;28;8840;-70
2020/12/11 07:48:49;;;;;;;;;10.00;10.00;;;;;9.78;66.19;100365.00;5016775;28;8860;-71
2020/12/11 07:51:17;;;;;;;;;9.00;9.00;;;;;9.51;66.54;100332.38;5019342;28;8852;-69
2020/12/11 07:53:50;;;;;;;;;9.00;9.00;;;;;9.33;68.17;100368.69;5016507;28;8849;-67
2020/12/11 07:56:17;;;;;;;;;8.33;6.67;;;;;8.89;69.82;100369.69;5018078;28;8860;-70
2020/12/11 07:58:53;;;;;;;;;6.00;6.00;;;;;9.03;69.49;100373.44;5019081;28;8916;-70
2020/12/11 08:01:19;;;;;;;;;13.00;11.00;;;;;8.88;69.81;100373.16;5017987;28;8844;-71
2020/12/11 08:03:45;;;;;;;;;10.00;9.00;;;;;8.54;70.97;100339.53;5016024;28;8849;-71
2020/12/11 08:06:12;;;;;;;;;9.00;6.00;;;;;8.64;71.29;100357.09;5020245;28;8915;-71
2020/12/11 08:08:38;;;;;;;;;14.00;11.00;;;;;8.82;70.72;100362.63;5015890;28;8848;-72
2020/12/11 08:11:05;;;;;;;;;11.00;10.00;;;;;8.99;70.49;100356.84;5020321;28;8948;-71
2020/12/11 08:13:31;;;;;;;;;13.67;11.33;;;;;9.02;70.62;100366.47;5018206;28;9588;-70
2020/12/11 08:16:02;;;;;;;;;13.67;12.33;;;;;9.01;70.54;100364.72;5013145;28;8942;-70
2020/12/11 08:18:30;;;;;;;;;7.33;7.33;;;;;9.03;70.71;100363.00;5012880;28;8862;-70
2020/12/11 08:20:57;;;;;;;;;16.67;13.33;;;;;9.01;70.67;100369.94;5013960;28;8848;-72
2020/12/11 08:23:35;;;;;;;;;16.00;10.67;;;;;9.26;70.29;100357.28;5014603;28;8940;-73
2020/12/11 08:26:10;;;;;;;;;13.00;11.67;;;;;9.46;69.84;100354.94;5016653;28;8849;-71
2020/12/11 08:28:37;;;;;;;;;11.00;11.00;;;;;9.33;70.01;100353.03;5011815;28;8937;-69
2020/12/11 08:31:25;;;;;;;;;15.00;14.00;;;;;9.26;70.79;100366.81;5019967;28;8818;-70
2020/12/11 08:34:04;;;;;;;;;17.67;14.33;;;;;9.20;71.27;100351.06;5016235;28;8879;-68
2020/12/11 08:36:32;;;;;;;;;12.67;9.67;;;;;9.38;71.06;100352.22;5014043;28;8866;-68
2020/12/11 08:39:20;;;;;;;;;15.67;13.00;;;;;9.33;70.97;100343.44;5013615;28;8959;-69
2020/12/11 08:42:18;;;;;;;;;14.00;12.33;;;;;9.48;70.83;100348.00;5012303;28;8864;-69
2020/12/11 08:50:29;;;;;;;;;14.67;11.67;;;;;9.61;70.72;100318.56;5010915;28;8867;-69
2020/12/11 08:52:56;;;;;;;;;14.00;13.00;;;;;9.74;70.22;100320.47;5018023;28;8979;-69
2020/12/11 08:55:22;;;;;;;;;16.33;14.00;;;;;9.68;70.20;100315.16;5017403;28;8906;-69
2020/12/11 08:57:49;;;;;;;;;15.00;12.33;;;;;9.63;70.98;100306.38;5007034;28;10282;-69
2020/12/11 09:00:17;;;;;;;;;14.67;13.00;;;;;9.68;70.98;100304.72;5007533;28;8862;-69
2020/12/11 09:02:44;;;;;;;;;16.33;15.00;;;;;9.74;71.01;100315.25;5008647;28;8867;-70
2020/12/11 09:05:10;;;;;;;;;18.67;17.00;;;;;9.60;71.28;100301.13;5014268;28;8858;-70
2020/12/11 09:07:37;;;;;;;;;18.00;16.00;;;;;9.70;71.13;100292.53;5013227;28;8844;-70
2020/12/11 09:10:04;;;;;;;;;21.33;18.00;;;;;9.68;71.33;100315.16;5013961;28;8914;-70
2020/12/11 09:12:30;;;;;;;;;14.33;14.33;;;;;9.74;71.34;100310.91;5019844;28;8846;-70
2020/12/11 09:14:56;;;;;;;;;15.33;14.00;;;;;9.81;70.94;100317.94;5018201;28;8839;-69
2020/12/11 09:17:23;;;;;;;;;15.67;14.67;;;;;9.66;71.84;100311.66;5018622;28;8855;-71
2020/12/11 09:19:50;;;;;;;;;17.67;13.67;;;;;9.52;71.66;100307.97;5019707;28;8849;-72
2020/12/11 09:22:16;;;;;;;;;15.00;15.00;;;;;9.55;72.63;100313.25;5017509;28;8917;-72
2020/12/11 09:24:43;;;;;;;;;15.00;14.00;;;;;9.37;72.24;100313.88;5024530;28;8919;-73
2020/12/11 09:27:12;;;;;;;;;14.00;13.00;;;;;9.62;71.47;100315.09;5019458;28;8987;-72
2020/12/11 09:29:40;;;;;;;;;13.67;10.67;;;;;9.75;71.61;100316.97;5016988;28;8870;-71
2020/12/11 09:32:07;;;;;;;;;16.00;16.00;;;;;9.75;70.94;100290.84;5017298;28;8918;-72
2020/12/11 09:34:34;;;;;;;;;14.67;10.67;;;;;10.07;70.73;100326.13;5024664;28;8834;-68
2020/12/11 09:37:03;;;;;;;;;16.33;16.33;;;;;10.12;70.52;100324.44;5024054;28;8943;-67
2020/12/11 09:39:30;;;;;;;;;17.67;13.00;;;;;10.04;70.47;100323.50;5021378;28;8845;-68
2020/12/11 09:42:01;;;;;;;;;13.33;11.33;;;;;10.34;69.63;100310.72;5022912;28;8852;-67
2020/12/11 09:50:07;;;;;;;;;18.00;13.00;;;;;10.43;68.79;100302.97;5018987;28;8848;-69
2020/12/11 09:52:45;;;;;;;;;18.33;17.00;;;;;10.63;68.81;100299.66;5020940;28;8841;-70
2020/12/11 09:55:12;;;;;;;;;13.33;11.67;;;;;10.42;68.92;100298.59;5017251;28;8856;-69
2020/12/11 09:57:39;;;;;;;;;13.33;13.00;;;;;10.57;68.80;100294.38;5023547;28;8968;-69
2020/12/11 10:00:06;;;;;;;;;18.00;16.33;;;;;10.56;69.37;100286.50;5020258;28;8836;-68
2020/12/11 10:02:43;;;;;;;;;17.67;16.67;;;;;10.86;68.13;100297.25;5023499;28;8841;-69
2020/12/11 10:05:10;;;;;;;;;17.67;16.33;;;;;11.10;67.87;100298.28;5016421;28;8922;-69
2020/12/11 10:07:37;;;;;;;;;16.00;14.00;;;;;11.20;66.61;100299.22;5016030;28;8855;-67
2020/12/11 10:10:04;;;;;;;;;14.67;14.00;;;;;11.34;66.51;100292.34;5023435;28;8884;-68
2020/12/11 10:12:30;;;;;;;;;15.33;13.67;;;;;11.53;65.78;100288.94;5021244;28;8938;-70
2020/12/11 10:15:00;;;;;;;;;11.67;11.67;;;;;11.41;66.47;100286.25;5022660;28;8898;-68
2020/12/11 10:17:26;;;;;;;;;17.67;15.00;;;;;11.50;66.24;100288.94;5020894;28;8925;-68
2020/12/11 10:19:53;;;;;;;;;19.00;15.00;;;;;11.66;65.94;100285.53;5021591;28;8852;-69
2020/12/11 10:22:19;;;;;;;;;13.67;13.67;;;;;11.37;65.44;100293.22;5022157;28;9625;-68
2020/12/11 10:24:46;;;;;;;;;14.33;14.33;;;;;11.31;66.08;100287.06;5021125;28;8868;-67
2020/12/11 10:27:13;;;;;;;;;15.33;11.67;;;;;11.39;65.84;100288.84;5022525;28;8849;-70
2020/12/11 10:29:39;;;;;;;;;12.00;10.67;;;;;11.39;64.19;100280.13;5020115;28;8914;-70
2020/12/11 10:32:06;;;;;;;;;12.33;9.67;;;;;11.53;64.37;100283.69;5015625;28;8836;-69
2020/12/11 10:34:35;;;;;;;;;11.67;7.67;;;;;11.62;64.29;100268.03;5023110;28;8911;-70
2020/12/11 10:37:01;;;;;;;;;18.67;16.67;;;;;11.83;64.74;100273.38;5019889;28;8910;-69
2020/12/11 10:39:27;;;;;;;;;20.00;18.67;;;;;12.00;63.47;100259.44;5021884;28;8856;-69
2020/12/11 10:41:54;;;;;;;;;12.67;10.00;;;;;12.13;63.08;100252.47;5020973;28;9056;-69
2020/12/11 10:44:20;;;;;;;;;11.67;11.00;;;;;12.05;62.28;100254.19;5020864;28;8828;-69
2020/12/11 10:46:49;;;;;;;;;11.33;10.00;;;;;12.19;62.32;100255.09;5022372;28;9602;-69
2020/12/11 10:49:15;;;;;;;;;11.00;9.67;;;;;12.35;61.59;100259.50;5019762;28;8844;-70
2020/12/11 10:51:46;;;;;;;;;11.00;11.00;;;;;12.52;61.20;100252.50;5022651;28;8878;-70
2020/12/11 10:54:14;;;;;;;;;12.33;11.00;;;;;12.43;61.33;100236.75;5019355;28;8872;-70
2020/12/11 10:56:40;;;;;;;;;11.67;11.67;;;;;13.01;61.02;100233.25;5022813;28;9554;-71
2020/12/11 10:59:07;;;;;;;;;16.00;15.33;;;;;15.31;54.88;100224.75;5019207;28;8966;-70
2020/12/11 11:01:34;;;;;;;;;15.67;14.00;;;;;17.80;48.04;100204.81;5022469;28;8911;-70
2020/12/11 11:04:01;;;;;;;;;16.00;8.67;;;;;20.01;42.34;100207.84;5019648;28;8857;-70
2020/12/11 11:06:30;;;;;;;;;11.67;11.67;;;;;21.51;39.73;100197.44;5021909;28;11577;-69
2020/12/11 11:09:08;;;;;;;;;12.00;11.50;;;;;20.38;41.23;100204.00;5020244;28;11566;-69
2020/12/11 11:11:37;;;;;;;;;13.25;12.00;;;;;19.27;43.13;100211.81;5022664;28;11531;-69
2020/12/11 11:19:47;;;;;;;;;13.50;12.00;;;;;17.49;45.92;100187.81;4991112;28;11566;-68
2020/12/11 11:22:23;;;;;;;;;12.00;11.00;;;;;17.89;44.89;100194.00;5019602;28;11583;-68
2020/12/11 11:27:33;;;;;;;;;15.75;12.00;;;;;17.82;45.24;100187.97;5017392;28;12279;-66
2020/12/11 11:30:00;;;;;;;;;26.00;22.00;;;;;16.87;46.86;100190.78;5019083;28;11583;-66
2020/12/11 11:32:27;;;;;;;;;18.25;13.25;;;;;16.28;48.47;100182.94;5026060;28;11629;-65
2020/12/11 11:34:53;;;;;;;;;14.00;13.00;;;;;15.12;50.70;100170.44;5021567;28;11686;-65
2020/12/11 11:37:21;;;;;;;;;17.00;13.25;;;;;15.20;51.79;100189.69;5025417;28;11554;-66
2020/12/11 11:39:48;;;;;;;;;14.00;12.00;;;;;15.15;52.28;100175.69;5017723;28;11572;-67
2020/12/11 11:42:14;;;;;;;;;15.50;12.50;;;;;14.87;53.50;100177.72;5018593;28;11648;-69
2020/12/11 11:47:21;;;;;;;;;14.50;11.50;;;;;14.58;55.39;100165.72;5013473;28;11580;-69
2020/12/11 11:50:05;;;;;;;;;10.50;10.00;;;;;14.59;55.40;100156.91;5018431;28;11636;-69
2020/12/11 11:52:35;;;;;;;;;14.00;13.00;;;;;14.57;55.51;100153.44;5019157;28;11515;-68